PWSweather.com
Personal Weather Stations
Station Observations
NORTHPOLE1
Tombur Subdivision, North Pole, AK 99705

Tombur SubdivisionNorth Pole, AK 99705

Lat: 64.774039, Lon: -147.284862

Elevation: 434

Station Type: Davis Vantage Pro 2

http://kl7ac.com

Latest ConditionsUpdated 7:10:00 PM AKST Friday, May 22, 2015
Currently Today's Max Today's Min Today's Average
Temperature 75.3°F24.1°C 80.2°F26.8°C 39.6°F4.2°C 60.5°F15.8°C
Dew Point 41.7°F5.4°C 47.3°F8.5°C 37.2°F2.9°C 42.6°F5.9°C
Winds Calm Calm 3.0 mph ENE4.8 kmh ENE - 0.5 mph 0.8 kmh
Wind Gusts 2.0 mph3.2 kmh 7.0 mph11.3 kmh - -
Humidity 30% 94% 25% 59%
Pressure 29.84 in1010.5 mb 30.09 in1019.0 mb 29.84 in1010.5 mb -
Hour Temp Dew Point Humidity Winds Wind Gusts Pressure Precip Precip Rate Daily Precip Total
07:10 PM 75.3°F24.1°C 41.7°F5.4°C 30% Calm Calm 2.0 mph3.2 kmh 29.84 in1010.5 mb 0.00 in0.0 mm 0.00 in0.0 mm 0.00 in0.0 mm
07:05 PM 75.5°F24.2°C 41.0°F5.0°C 29% Calm Calm 3.0 mph4.8 kmh 29.84 in1010.5 mb 0.00 in0.0 mm 0.00 in0.0 mm 0.00 in0.0 mm
07:00 PM 75.8°F24.3°C 42.1°F5.6°C 30% Calm Calm 3.0 mph4.8 kmh 29.85 in1010.8 mb 0.00 in0.0 mm 0.00 in0.0 mm 0.00 in0.0 mm
06:55 PM 76.0°F24.4°C 41.4°F5.2°C 29% Calm Calm 3.0 mph4.8 kmh 29.85 in1010.8 mb 0.00 in0.0 mm 0.00 in0.0 mm 0.00 in0.0 mm
06:50 PM 76.2°F24.6°C 41.6°F5.3°C 29% 1.0 mph NE1.6 kmh NE 4.0 mph6.4 kmh 29.85 in1010.8 mb 0.00 in0.0 mm 0.00 in0.0 mm 0.00 in0.0 mm
06:45 PM 76.3°F24.6°C 40.8°F4.9°C 28% Calm Calm 4.0 mph6.4 kmh 29.85 in1010.8 mb 0.00 in0.0 mm 0.00 in0.0 mm 0.00 in0.0 mm
06:40 PM 76.3°F24.6°C 40.8°F4.9°C 28% Calm Calm 3.0 mph4.8 kmh 29.86 in1011.2 mb 0.00 in0.0 mm 0.00 in0.0 mm 0.00 in0.0 mm
06:35 PM 76.4°F24.7°C 39.9°F4.4°C 27% Calm Calm 3.0 mph4.8 kmh 29.86 in1011.2 mb 0.00 in0.0 mm 0.00 in0.0 mm 0.00 in0.0 mm
06:30 PM 76.6°F24.8°C 42.8°F6.0°C 30% Calm Calm 1.0 mph1.6 kmh 29.86 in1011.2 mb 0.00 in0.0 mm 0.00 in0.0 mm 0.00 in0.0 mm
06:25 PM 76.7°F24.8°C 40.2°F4.6°C 27% Calm Calm 2.0 mph3.2 kmh 29.86 in1011.2 mb 0.00 in0.0 mm 0.00 in0.0 mm 0.00 in0.0 mm
06:20 PM 76.8°F24.9°C 41.2°F5.1°C 28% 1.0 mph NE1.6 kmh NE 4.0 mph6.4 kmh 29.86 in1011.2 mb 0.00 in0.0 mm 0.00 in0.0 mm 0.00 in0.0 mm
06:15 PM 77.0°F25.0°C 41.4°F5.2°C 28% Calm Calm 4.0 mph6.4 kmh 29.86 in1011.2 mb 0.00 in0.0 mm 0.00 in0.0 mm 0.00 in0.0 mm
06:10 PM 77.1°F25.1°C 42.4°F5.8°C 29% Calm Calm 4.0 mph6.4 kmh 29.86 in1011.2 mb 0.00 in0.0 mm 0.00 in0.0 mm 0.00 in0.0 mm
06:05 PM 77.2°F25.1°C 40.6°F4.8°C 27% Calm Calm 3.0 mph4.8 kmh 29.86 in1011.2 mb 0.00 in0.0 mm 0.00 in0.0 mm 0.00 in0.0 mm
06:00 PM 77.4°F25.2°C 42.6°F5.9°C 29% Calm Calm 3.0 mph4.8 kmh 29.87 in1011.5 mb 0.00 in0.0 mm 0.00 in0.0 mm 0.00 in0.0 mm
05:55 PM 77.6°F25.3°C 41.9°F5.5°C 28% Calm Calm 1.0 mph1.6 kmh 29.87 in1011.5 mb 0.00 in0.0 mm 0.00 in0.0 mm 0.00 in0.0 mm
05:50 PM 77.7°F25.4°C 42.9°F6.1°C 29% Calm Calm 2.0 mph3.2 kmh 29.87 in1011.5 mb 0.00 in0.0 mm 0.00 in0.0 mm 0.00 in0.0 mm
05:45 PM 77.9°F25.5°C 43.1°F6.2°C 29% 1.0 mph NE1.6 kmh NE 4.0 mph6.4 kmh 29.87 in1011.5 mb 0.00 in0.0 mm 0.00 in0.0 mm 0.00 in0.0 mm
05:40 PM 78.0°F25.6°C 42.2°F5.7°C 28% 1.0 mph NNE1.6 kmh NNE 4.0 mph6.4 kmh 29.87 in1011.5 mb 0.00 in0.0 mm 0.00 in0.0 mm 0.00 in0.0 mm
05:35 PM 78.1°F25.6°C 43.2°F6.2°C 29% 1.0 mph N1.6 kmh N 5.0 mph8.0 kmh 29.87 in1011.5 mb 0.00 in0.0 mm 0.00 in0.0 mm 0.00 in0.0 mm
05:30 PM 78.3°F25.7°C 44.3°F6.8°C 30% 1.0 mph N1.6 kmh N 5.0 mph8.0 kmh 29.87 in1011.5 mb 0.00 in0.0 mm 0.00 in0.0 mm 0.00 in0.0 mm
05:25 PM 78.4°F25.8°C 43.5°F6.4°C 29% Calm Calm 4.0 mph6.4 kmh 29.87 in1011.5 mb 0.00 in0.0 mm 0.00 in0.0 mm 0.00 in0.0 mm
05:20 PM 78.5°F25.8°C 42.7°F5.9°C 28% Calm Calm 3.0 mph4.8 kmh 29.88 in1011.9 mb 0.00 in0.0 mm 0.00 in0.0 mm 0.00 in0.0 mm
05:15 PM 78.7°F25.9°C 41.9°F5.5°C 27% Calm Calm 2.0 mph3.2 kmh 29.88 in1011.9 mb 0.00 in0.0 mm 0.00 in0.0 mm 0.00 in0.0 mm
05:10 PM 78.7°F25.9°C 39.9°F4.4°C 25% Calm Calm 2.0 mph3.2 kmh 29.88 in1011.9 mb 0.00 in0.0 mm 0.00 in0.0 mm 0.00 in0.0 mm
05:05 PM 78.9°F26.1°C 42.1°F5.6°C 27% 1.0 mph WSW1.6 kmh WSW 4.0 mph6.4 kmh 29.88 in1011.9 mb 0.00 in0.0 mm 0.00 in0.0 mm 0.00 in0.0 mm
05:00 PM 79.0°F26.1°C 42.2°F5.7°C 27% 1.0 mph WSW1.6 kmh WSW 6.0 mph9.7 kmh 29.89 in1012.2 mb 0.00 in0.0 mm 0.00 in0.0 mm 0.00 in0.0 mm
04:55 PM 79.0°F26.1°C 42.2°F5.7°C 27% 2.0 mph WSW3.2 kmh WSW 7.0 mph11.3 kmh 29.89 in1012.2 mb 0.00 in0.0 mm 0.00 in0.0 mm 0.00 in0.0 mm
04:50 PM 78.8°F26.0°C 42.9°F6.1°C 28% 1.0 mph WSW1.6 kmh WSW 7.0 mph11.3 kmh 29.89 in1012.2 mb 0.00 in0.0 mm 0.00 in0.0 mm 0.00 in0.0 mm
04:45 PM 78.7°F25.9°C 41.9°F5.5°C 27% Calm Calm 2.0 mph3.2 kmh 29.89 in1012.2 mb 0.00 in0.0 mm 0.00 in0.0 mm 0.00 in0.0 mm
04:40 PM 78.8°F26.0°C 42.0°F5.6°C 27% Calm Calm 1.0 mph1.6 kmh 29.90 in1012.5 mb 0.00 in0.0 mm 0.00 in0.0 mm 0.00 in0.0 mm
04:35 PM 79.0°F26.1°C 44.0°F6.7°C 29% Calm Calm 1.0 mph1.6 kmh 29.90 in1012.5 mb 0.00 in0.0 mm 0.00 in0.0 mm 0.00 in0.0 mm
04:30 PM 79.3°F26.3°C 42.4°F5.8°C 27% Calm Calm 3.0 mph4.8 kmh 29.90 in1012.5 mb 0.00 in0.0 mm 0.00 in0.0 mm 0.00 in0.0 mm
04:25 PM 79.5°F26.4°C 42.6°F5.9°C 27% Calm Calm 3.0 mph4.8 kmh 29.90 in1012.5 mb 0.00 in0.0 mm 0.00 in0.0 mm 0.00 in0.0 mm
04:20 PM 79.6°F26.4°C 41.7°F5.4°C 26% Calm Calm 4.0 mph6.4 kmh 29.90 in1012.5 mb 0.00 in0.0 mm 0.00 in0.0 mm 0.00 in0.0 mm
04:15 PM 79.6°F26.4°C 42.7°F5.9°C 27% Calm Calm 4.0 mph6.4 kmh 29.90 in1012.5 mb 0.00 in0.0 mm 0.00 in0.0 mm 0.00 in0.0 mm
04:10 PM 79.8°F26.6°C 42.8°F6.0°C 27% Calm Calm 1.0 mph1.6 kmh 29.90 in1012.5 mb 0.00 in0.0 mm 0.00 in0.0 mm 0.00 in0.0 mm
04:05 PM 80.0°F26.7°C 43.0°F6.1°C 27% Calm Calm 3.0 mph4.8 kmh 29.91 in1012.9 mb 0.00 in0.0 mm 0.00 in0.0 mm 0.00 in0.0 mm
04:00 PM 80.2°F26.8°C 43.2°F6.2°C 27% Calm Calm 4.0 mph6.4 kmh 29.91 in1012.9 mb 0.00 in0.0 mm 0.00 in0.0 mm 0.00 in0.0 mm
03:55 PM 80.2°F26.8°C 42.2°F5.7°C 26% Calm Calm 4.0 mph6.4 kmh 29.91 in1012.9 mb 0.00 in0.0 mm 0.00 in0.0 mm 0.00 in0.0 mm
03:50 PM 80.0°F26.7°C 43.0°F6.1°C 27% 1.0 mph SE1.6 kmh SE 3.0 mph4.8 kmh 29.91 in1012.9 mb 0.00 in0.0 mm 0.00 in0.0 mm 0.00 in0.0 mm
03:45 PM 79.8°F26.6°C 43.8°F6.6°C 28% 1.0 mph SE1.6 kmh SE 4.0 mph6.4 kmh 29.91 in1012.9 mb 0.00 in0.0 mm 0.00 in0.0 mm 0.00 in0.0 mm
03:40 PM 79.4°F26.3°C 42.5°F5.8°C 27% Calm Calm 4.0 mph6.4 kmh 29.92 in1013.2 mb 0.00 in0.0 mm 0.00 in0.0 mm 0.00 in0.0 mm
03:35 PM 78.9°F26.1°C 42.1°F5.6°C 27% Calm Calm 3.0 mph4.8 kmh 29.92 in1013.2 mb 0.00 in0.0 mm 0.00 in0.0 mm 0.00 in0.0 mm
03:30 PM 78.5°F25.8°C 43.6°F6.4°C 29% 1.0 mph N1.6 kmh N 3.0 mph4.8 kmh 29.92 in1013.2 mb 0.00 in0.0 mm 0.00 in0.0 mm 0.00 in0.0 mm
03:25 PM 78.0°F25.6°C 43.2°F6.2°C 29% 1.0 mph NNE1.6 kmh NNE 3.0 mph4.8 kmh 29.92 in1013.2 mb 0.00 in0.0 mm 0.00 in0.0 mm 0.00 in0.0 mm
03:20 PM 78.0°F25.6°C 44.9°F7.2°C 31% Calm Calm 2.0 mph3.2 kmh 29.93 in1013.5 mb 0.00 in0.0 mm 0.00 in0.0 mm 0.00 in0.0 mm
03:15 PM 78.2°F25.7°C 42.4°F5.8°C 28% Calm Calm 3.0 mph4.8 kmh 29.93 in1013.5 mb 0.00 in0.0 mm 0.00 in0.0 mm 0.00 in0.0 mm
03:10 PM 78.7°F25.9°C 42.8°F6.0°C 28% 1.0 mph NNE1.6 kmh NNE 3.0 mph4.8 kmh 29.93 in1013.5 mb 0.00 in0.0 mm 0.00 in0.0 mm 0.00 in0.0 mm
03:05 PM 78.8°F26.0°C 43.8°F6.6°C 29% 1.0 mph NE1.6 kmh NE 5.0 mph8.0 kmh 29.93 in1013.5 mb 0.00 in0.0 mm 0.00 in0.0 mm 0.00 in0.0 mm
03:00 PM 78.7°F25.9°C 41.9°F5.5°C 27% 1.0 mph NE1.6 kmh NE 5.0 mph8.0 kmh 29.93 in1013.5 mb 0.00 in0.0 mm 0.00 in0.0 mm 0.00 in0.0 mm
02:55 PM 78.7°F25.9°C 43.8°F6.6°C 29% 1.0 mph N1.6 kmh N 4.0 mph6.4 kmh 29.93 in1013.5 mb 0.00 in0.0 mm 0.00 in0.0 mm 0.00 in0.0 mm
02:50 PM 78.7°F25.9°C 43.8°F6.6°C 29% 1.0 mph NNW1.6 kmh NNW 6.0 mph9.7 kmh 29.93 in1013.5 mb 0.00 in0.0 mm 0.00 in0.0 mm 0.00 in0.0 mm
02:45 PM 78.8°F26.0°C 43.8°F6.6°C 29% 1.0 mph NW1.6 kmh NW 6.0 mph9.7 kmh 29.93 in1013.5 mb 0.00 in0.0 mm 0.00 in0.0 mm 0.00 in0.0 mm
02:40 PM 78.7°F25.9°C 44.7°F7.1°C 30% 1.0 mph N1.6 kmh N 4.0 mph6.4 kmh 29.94 in1013.9 mb 0.00 in0.0 mm 0.00 in0.0 mm 0.00 in0.0 mm
02:35 PM 78.7°F25.9°C 44.7°F7.1°C 30% 2.0 mph NNE3.2 kmh NNE 4.0 mph6.4 kmh 29.94 in1013.9 mb 0.00 in0.0 mm 0.00 in0.0 mm 0.00 in0.0 mm
02:30 PM 78.7°F25.9°C 42.8°F6.0°C 28% 1.0 mph NE1.6 kmh NE 4.0 mph6.4 kmh 29.94 in1013.9 mb 0.00 in0.0 mm 0.00 in0.0 mm 0.00 in0.0 mm
02:25 PM 78.7°F25.9°C 43.8°F6.6°C 29% 1.0 mph N1.6 kmh N 5.0 mph8.0 kmh 29.94 in1013.9 mb 0.00 in0.0 mm 0.00 in0.0 mm 0.00 in0.0 mm
02:20 PM 78.6°F25.9°C 44.6°F7.0°C 30% 2.0 mph NNE3.2 kmh NNE 7.0 mph11.3 kmh 29.94 in1013.9 mb 0.00 in0.0 mm 0.00 in0.0 mm 0.00 in0.0 mm
02:15 PM 78.6°F25.9°C 43.7°F6.5°C 29% 1.0 mph NE1.6 kmh NE 7.0 mph11.3 kmh 29.95 in1014.2 mb 0.00 in0.0 mm 0.00 in0.0 mm 0.00 in0.0 mm
02:10 PM 78.7°F25.9°C 44.7°F7.1°C 30% 1.0 mph NE1.6 kmh NE 7.0 mph11.3 kmh 29.95 in1014.2 mb 0.00 in0.0 mm 0.00 in0.0 mm 0.00 in0.0 mm
02:05 PM 78.6°F25.9°C 45.4°F7.4°C 31% 1.0 mph NE1.6 kmh NE 6.0 mph9.7 kmh 29.95 in1014.2 mb 0.00 in0.0 mm 0.00 in0.0 mm 0.00 in0.0 mm
02:00 PM 78.3°F25.7°C 44.3°F6.8°C 30% 1.0 mph N1.6 kmh N 4.0 mph6.4 kmh 29.95 in1014.2 mb 0.00 in0.0 mm 0.00 in0.0 mm 0.00 in0.0 mm
01:55 PM 78.2°F25.7°C 43.3°F6.3°C 29% 1.0 mph N1.6 kmh N 4.0 mph6.4 kmh 29.96 in1014.6 mb 0.00 in0.0 mm 0.00 in0.0 mm 0.00 in0.0 mm
01:50 PM 78.2°F25.7°C 45.1°F7.3°C 31% 1.0 mph SSE1.6 kmh SSE 5.0 mph8.0 kmh 29.96 in1014.6 mb 0.00 in0.0 mm 0.00 in0.0 mm 0.00 in0.0 mm
01:45 PM 78.4°F25.8°C 42.6°F5.9°C 28% 1.0 mph SE1.6 kmh SE 6.0 mph9.7 kmh 29.96 in1014.6 mb 0.00 in0.0 mm 0.00 in0.0 mm 0.00 in0.0 mm
01:40 PM 78.7°F25.9°C 43.8°F6.6°C 29% 1.0 mph E1.6 kmh E 6.0 mph9.7 kmh 29.96 in1014.6 mb 0.00 in0.0 mm 0.00 in0.0 mm 0.00 in0.0 mm
01:35 PM 78.8°F26.0°C 44.7°F7.1°C 30% 1.0 mph NE1.6 kmh NE 6.0 mph9.7 kmh 29.96 in1014.6 mb 0.00 in0.0 mm 0.00 in0.0 mm 0.00 in0.0 mm
01:30 PM 78.8°F26.0°C 43.8°F6.6°C 29% 1.0 mph NNE1.6 kmh NNE 6.0 mph9.7 kmh 29.96 in1014.6 mb 0.00 in0.0 mm 0.00 in0.0 mm 0.00 in0.0 mm
01:25 PM 78.7°F25.9°C 44.7°F7.1°C 30% 1.0 mph NNE1.6 kmh NNE 6.0 mph9.7 kmh 29.96 in1014.6 mb 0.00 in0.0 mm 0.00 in0.0 mm 0.00 in0.0 mm
01:20 PM 78.7°F25.9°C 43.8°F6.6°C 29% 1.0 mph ENE1.6 kmh ENE 7.0 mph11.3 kmh 29.97 in1014.9 mb 0.00 in0.0 mm 0.00 in0.0 mm 0.00 in0.0 mm
01:15 PM 78.3°F25.7°C 45.2°F7.3°C 31% 2.0 mph NE3.2 kmh NE 7.0 mph11.3 kmh 29.97 in1014.9 mb 0.00 in0.0 mm 0.00 in0.0 mm 0.00 in0.0 mm
01:10 PM 78.0°F25.6°C 44.0°F6.7°C 30% 3.0 mph ENE4.8 kmh ENE 7.0 mph11.3 kmh 29.97 in1014.9 mb 0.00 in0.0 mm 0.00 in0.0 mm 0.00 in0.0 mm
01:05 PM 77.8°F25.4°C 43.0°F6.1°C 29% 2.0 mph ENE3.2 kmh ENE 7.0 mph11.3 kmh 29.98 in1015.2 mb 0.00 in0.0 mm 0.00 in0.0 mm 0.00 in0.0 mm
01:00 PM 77.9°F25.5°C 43.1°F6.2°C 29% 2.0 mph ENE3.2 kmh ENE 6.0 mph9.7 kmh 29.97 in1014.9 mb 0.00 in0.0 mm 0.00 in0.0 mm 0.00 in0.0 mm
12:55 PM 78.2°F25.7°C 43.3°F6.3°C 29% 2.0 mph E3.2 kmh E 6.0 mph9.7 kmh 29.98 in1015.2 mb 0.00 in0.0 mm 0.00 in0.0 mm 0.00 in0.0 mm
12:50 PM 78.3°F25.7°C 44.3°F6.8°C 30% 2.0 mph E3.2 kmh E 6.0 mph9.7 kmh 29.98 in1015.2 mb 0.00 in0.0 mm 0.00 in0.0 mm 0.00 in0.0 mm
12:45 PM 78.0°F25.6°C 44.9°F7.2°C 31% 1.0 mph E1.6 kmh E 5.0 mph8.0 kmh 29.98 in1015.2 mb 0.00 in0.0 mm 0.00 in0.0 mm 0.00 in0.0 mm
12:40 PM 77.0°F25.0°C 44.9°F7.2°C 32% 1.0 mph ENE1.6 kmh ENE 7.0 mph11.3 kmh 29.98 in1015.2 mb 0.00 in0.0 mm 0.00 in0.0 mm 0.00 in0.0 mm
12:35 PM 76.3°F24.6°C 44.3°F6.8°C 32% 1.0 mph ENE1.6 kmh ENE 7.0 mph11.3 kmh 29.99 in1015.6 mb 0.00 in0.0 mm 0.00 in0.0 mm 0.00 in0.0 mm
12:30 PM 76.1°F24.5°C 44.1°F6.7°C 32% 1.0 mph NE1.6 kmh NE 5.0 mph8.0 kmh 29.99 in1015.6 mb 0.00 in0.0 mm 0.00 in0.0 mm 0.00 in0.0 mm
12:25 PM 75.7°F24.3°C 45.3°F7.4°C 34% 1.0 mph NE1.6 kmh NE 4.0 mph6.4 kmh 30.00 in1015.9 mb 0.00 in0.0 mm 0.00 in0.0 mm 0.00 in0.0 mm
12:20 PM 75.0°F23.9°C 44.7°F7.1°C 34% 1.0 mph ENE1.6 kmh ENE 4.0 mph6.4 kmh 30.00 in1015.9 mb 0.00 in0.0 mm 0.00 in0.0 mm 0.00 in0.0 mm
12:15 PM 74.6°F23.7°C 45.1°F7.3°C 35% 1.0 mph E1.6 kmh E 5.0 mph8.0 kmh 30.00 in1015.9 mb 0.00 in0.0 mm 0.00 in0.0 mm 0.00 in0.0 mm
12:10 PM 74.5°F23.6°C 45.0°F7.2°C 35% 1.0 mph E1.6 kmh E 5.0 mph8.0 kmh 30.00 in1015.9 mb 0.00 in0.0 mm 0.00 in0.0 mm 0.00 in0.0 mm
12:05 PM 74.4°F23.6°C 45.0°F7.2°C 35% 2.0 mph E3.2 kmh E 6.0 mph9.7 kmh 30.00 in1015.9 mb 0.00 in0.0 mm 0.00 in0.0 mm 0.00 in0.0 mm
12:00 PM 74.0°F23.3°C 46.1°F7.8°C 37% 1.0 mph ESE1.6 kmh ESE 7.0 mph11.3 kmh 30.00 in1015.9 mb 0.00 in0.0 mm 0.00 in0.0 mm 0.00 in0.0 mm
11:55 AM 73.3°F22.9°C 46.2°F7.9°C 38% 1.0 mph ESE1.6 kmh ESE 7.0 mph11.3 kmh 30.00 in1015.9 mb 0.00 in0.0 mm 0.00 in0.0 mm 0.00 in0.0 mm
11:50 AM 72.6°F22.6°C 46.2°F7.9°C 39% 1.0 mph E1.6 kmh E 4.0 mph6.4 kmh 30.01 in1016.3 mb 0.00 in0.0 mm 0.00 in0.0 mm 0.00 in0.0 mm
11:45 AM 71.9°F22.2°C 45.6°F7.6°C 39% 1.0 mph E1.6 kmh E 4.0 mph6.4 kmh 30.01 in1016.3 mb 0.00 in0.0 mm 0.00 in0.0 mm 0.00 in0.0 mm
11:40 AM 71.2°F21.8°C 45.0°F7.2°C 39% 1.0 mph E1.6 kmh E 4.0 mph6.4 kmh 30.02 in1016.6 mb 0.00 in0.0 mm 0.00 in0.0 mm 0.00 in0.0 mm
11:35 AM 70.8°F21.6°C 45.3°F7.4°C 40% 1.0 mph E1.6 kmh E 5.0 mph8.0 kmh 30.02 in1016.6 mb 0.00 in0.0 mm 0.00 in0.0 mm 0.00 in0.0 mm
11:30 AM 70.7°F21.5°C 45.2°F7.3°C 40% 1.0 mph E1.6 kmh E 6.0 mph9.7 kmh 30.02 in1016.6 mb 0.00 in0.0 mm 0.00 in0.0 mm 0.00 in0.0 mm
11:25 AM 70.4°F21.3°C 45.6°F7.6°C 41% 1.0 mph E1.6 kmh E 6.0 mph9.7 kmh 30.02 in1016.6 mb 0.00 in0.0 mm 0.00 in0.0 mm 0.00 in0.0 mm
11:20 AM 70.2°F21.2°C 45.4°F7.4°C 41% 2.0 mph NE3.2 kmh NE 5.0 mph8.0 kmh 30.02 in1016.6 mb 0.00 in0.0 mm 0.00 in0.0 mm 0.00 in0.0 mm
11:15 AM 69.9°F21.1°C 45.1°F7.3°C 41% 1.0 mph NNE1.6 kmh NNE 6.0 mph9.7 kmh 30.02 in1016.6 mb 0.00 in0.0 mm 0.00 in0.0 mm 0.00 in0.0 mm
11:10 AM 69.6°F20.9°C 45.5°F7.5°C 42% 1.0 mph NE1.6 kmh NE 6.0 mph9.7 kmh 30.03 in1016.9 mb 0.00 in0.0 mm 0.00 in0.0 mm 0.00 in0.0 mm
11:05 AM 69.1°F20.6°C 45.7°F7.6°C 43% 1.0 mph E1.6 kmh E 5.0 mph8.0 kmh 30.03 in1016.9 mb 0.00 in0.0 mm 0.00 in0.0 mm 0.00 in0.0 mm
11:00 AM 68.5°F20.3°C 45.7°F7.6°C 44% 1.0 mph ESE1.6 kmh ESE 4.0 mph6.4 kmh 30.03 in1016.9 mb 0.00 in0.0 mm 0.00 in0.0 mm 0.00 in0.0 mm
10:55 AM 68.0°F20.0°C 44.7°F7.1°C 43% 1.0 mph SE1.6 kmh SE 5.0 mph8.0 kmh 30.03 in1016.9 mb 0.00 in0.0 mm 0.00 in0.0 mm 0.00 in0.0 mm
10:50 AM 67.5°F19.7°C 45.4°F7.4°C 45% 1.0 mph SE1.6 kmh SE 5.0 mph8.0 kmh 30.03 in1016.9 mb 0.00 in0.0 mm 0.00 in0.0 mm 0.00 in0.0 mm
10:45 AM 67.2°F19.6°C 45.1°F7.3°C 45% 1.0 mph ESE1.6 kmh ESE 3.0 mph4.8 kmh 30.04 in1017.3 mb 0.00 in0.0 mm 0.00 in0.0 mm 0.00 in0.0 mm
10:40 AM 67.0°F19.4°C 46.1°F7.8°C 47% 1.0 mph ESE1.6 kmh ESE 4.0 mph6.4 kmh 30.04 in1017.3 mb 0.00 in0.0 mm 0.00 in0.0 mm 0.00 in0.0 mm
10:35 AM 66.8°F19.3°C 45.3°F7.4°C 46% 1.0 mph SE1.6 kmh SE 5.0 mph8.0 kmh 30.04 in1017.3 mb 0.00 in0.0 mm 0.00 in0.0 mm 0.00 in0.0 mm
10:30 AM 66.6°F19.2°C 46.3°F7.9°C 48% 1.0 mph SE1.6 kmh SE 5.0 mph8.0 kmh 30.04 in1017.3 mb 0.00 in0.0 mm 0.00 in0.0 mm 0.00 in0.0 mm
10:25 AM 66.0°F18.9°C 45.7°F7.6°C 48% 1.0 mph SE1.6 kmh SE 5.0 mph8.0 kmh 30.04 in1017.3 mb 0.00 in0.0 mm 0.00 in0.0 mm 0.00 in0.0 mm
10:20 AM 65.2°F18.4°C 46.1°F7.8°C 50% 1.0 mph SE1.6 kmh SE 4.0 mph6.4 kmh 30.04 in1017.3 mb 0.00 in0.0 mm 0.00 in0.0 mm 0.00 in0.0 mm
10:15 AM 64.4°F18.0°C 45.3°F7.4°C 50% 1.0 mph E1.6 kmh E 4.0 mph6.4 kmh 30.04 in1017.3 mb 0.00 in0.0 mm 0.00 in0.0 mm 0.00 in0.0 mm
10:10 AM 64.0°F17.8°C 46.0°F7.8°C 52% Calm Calm 3.0 mph4.8 kmh 30.05 in1017.6 mb 0.00 in0.0 mm 0.00 in0.0 mm 0.00 in0.0 mm
10:05 AM 63.7°F17.6°C 46.2°F7.9°C 53% 1.0 mph ENE1.6 kmh ENE 4.0 mph6.4 kmh 30.05 in1017.6 mb 0.00 in0.0 mm 0.00 in0.0 mm 0.00 in0.0 mm
10:00 AM 63.3°F17.4°C 45.9°F7.7°C 53% Calm Calm 4.0 mph6.4 kmh 30.05 in1017.6 mb 0.00 in0.0 mm 0.00 in0.0 mm 0.00 in0.0 mm
09:55 AM 63.0°F17.2°C 46.1°F7.8°C 54% Calm Calm 3.0 mph4.8 kmh 30.05 in1017.6 mb 0.00 in0.0 mm 0.00 in0.0 mm 0.00 in0.0 mm
09:50 AM 62.7°F17.1°C 45.8°F7.7°C 54% 1.0 mph E1.6 kmh E 3.0 mph4.8 kmh 30.05 in1017.6 mb 0.00 in0.0 mm 0.00 in0.0 mm 0.00 in0.0 mm
09:45 AM 62.3°F16.8°C 46.4°F8.0°C 56% 1.0 mph NE1.6 kmh NE 3.0 mph4.8 kmh 30.05 in1017.6 mb 0.00 in0.0 mm 0.00 in0.0 mm 0.00 in0.0 mm
09:40 AM 61.9°F16.6°C 47.0°F8.3°C 58% 1.0 mph NE1.6 kmh NE 3.0 mph4.8 kmh 30.05 in1017.6 mb 0.00 in0.0 mm 0.00 in0.0 mm 0.00 in0.0 mm
09:35 AM 61.3°F16.3°C 46.8°F8.2°C 59% 1.0 mph NE1.6 kmh NE 3.0 mph4.8 kmh 30.06 in1017.9 mb 0.00 in0.0 mm 0.00 in0.0 mm 0.00 in0.0 mm
09:30 AM 60.6°F15.9°C 47.1°F8.4°C 61% 1.0 mph NE1.6 kmh NE 3.0 mph4.8 kmh 30.06 in1017.9 mb 0.00 in0.0 mm 0.00 in0.0 mm 0.00 in0.0 mm
09:25 AM 59.9°F15.5°C 47.3°F8.5°C 63% 1.0 mph ENE1.6 kmh ENE 4.0 mph6.4 kmh 30.06 in1017.9 mb 0.00 in0.0 mm 0.00 in0.0 mm 0.00 in0.0 mm
09:20 AM 59.3°F15.2°C 46.3°F7.9°C 62% Calm Calm 4.0 mph6.4 kmh 30.06 in1017.9 mb 0.00 in0.0 mm 0.00 in0.0 mm 0.00 in0.0 mm
09:15 AM 59.0°F15.0°C 46.8°F8.2°C 64% Calm Calm 3.0 mph4.8 kmh 30.06 in1017.9 mb 0.00 in0.0 mm 0.00 in0.0 mm 0.00 in0.0 mm
09:10 AM 58.4°F14.7°C 46.7°F8.2°C 65% 1.0 mph ENE1.6 kmh ENE 4.0 mph6.4 kmh 30.07 in1018.3 mb 0.00 in0.0 mm 0.00 in0.0 mm 0.00 in0.0 mm
09:05 AM 57.8°F14.3°C 46.5°F8.1°C 66% 1.0 mph ENE1.6 kmh ENE 5.0 mph8.0 kmh 30.07 in1018.3 mb 0.00 in0.0 mm 0.00 in0.0 mm 0.00 in0.0 mm
09:00 AM 57.1°F13.9°C 46.2°F7.9°C 67% 1.0 mph ENE1.6 kmh ENE 5.0 mph8.0 kmh 30.07 in1018.3 mb 0.00 in0.0 mm 0.00 in0.0 mm 0.00 in0.0 mm
08:55 AM 56.6°F13.7°C 46.2°F7.9°C 68% 1.0 mph ENE1.6 kmh ENE 5.0 mph8.0 kmh 30.07 in1018.3 mb 0.00 in0.0 mm 0.00 in0.0 mm 0.00 in0.0 mm
08:50 AM 56.1°F13.4°C 45.7°F7.6°C 68% Calm Calm 5.0 mph8.0 kmh 30.07 in1018.3 mb 0.00 in0.0 mm 0.00 in0.0 mm 0.00 in0.0 mm
08:45 AM 55.8°F13.2°C 45.4°F7.4°C 68% Calm Calm 3.0 mph4.8 kmh 30.07 in1018.3 mb 0.00 in0.0 mm 0.00 in0.0 mm 0.00 in0.0 mm
08:40 AM 55.3°F12.9°C 45.3°F7.4°C 69% 1.0 mph E1.6 kmh E 3.0 mph4.8 kmh 30.08 in1018.6 mb 0.00 in0.0 mm 0.00 in0.0 mm 0.00 in0.0 mm
08:35 AM 54.9°F12.7°C 45.7°F7.6°C 71% 1.0 mph E1.6 kmh E 3.0 mph4.8 kmh 30.08 in1018.6 mb 0.00 in0.0 mm 0.00 in0.0 mm 0.00 in0.0 mm
08:30 AM 54.3°F12.4°C 45.1°F7.3°C 71% Calm Calm 3.0 mph4.8 kmh 30.08 in1018.6 mb 0.00 in0.0 mm 0.00 in0.0 mm 0.00 in0.0 mm
08:25 AM 53.7°F12.1°C 45.2°F7.3°C 73% 1.0 mph ENE1.6 kmh ENE 3.0 mph4.8 kmh 30.08 in1018.6 mb 0.00 in0.0 mm 0.00 in0.0 mm 0.00 in0.0 mm
08:20 AM 53.0°F11.7°C 44.9°F7.2°C 74% Calm Calm 3.0 mph4.8 kmh 30.08 in1018.6 mb 0.00 in0.0 mm 0.00 in0.0 mm 0.00 in0.0 mm
08:15 AM 52.2°F11.2°C 44.9°F7.2°C 76% Calm Calm 2.0 mph3.2 kmh 30.08 in1018.6 mb 0.00 in0.0 mm 0.00 in0.0 mm 0.00 in0.0 mm
08:10 AM 51.5°F10.8°C 44.5°F6.9°C 77% 1.0 mph ENE1.6 kmh ENE 3.0 mph4.8 kmh 30.08 in1018.6 mb 0.00 in0.0 mm 0.00 in0.0 mm 0.00 in0.0 mm
08:05 AM 50.8°F10.4°C 44.2°F6.8°C 78% 1.0 mph E1.6 kmh E 3.0 mph4.8 kmh 30.08 in1018.6 mb 0.00 in0.0 mm 0.00 in0.0 mm 0.00 in0.0 mm
08:00 AM 50.1°F10.1°C 43.8°F6.6°C 79% 1.0 mph E1.6 kmh E 3.0 mph4.8 kmh 30.08 in1018.6 mb 0.00 in0.0 mm 0.00 in0.0 mm 0.00 in0.0 mm
07:55 AM 49.6°F9.8°C 44.0°F6.7°C 81% Calm Calm 3.0 mph4.8 kmh 30.08 in1018.6 mb 0.00 in0.0 mm 0.00 in0.0 mm 0.00 in0.0 mm
07:50 AM 49.1°F9.5°C 43.5°F6.4°C 81% Calm Calm 2.0 mph3.2 kmh 30.08 in1018.6 mb 0.00 in0.0 mm 0.00 in0.0 mm 0.00 in0.0 mm
07:45 AM 48.7°F9.3°C 43.5°F6.4°C 82% Calm Calm 1.0 mph1.6 kmh 30.09 in1019.0 mb 0.00 in0.0 mm 0.00 in0.0 mm 0.00 in0.0 mm
07:40 AM 48.3°F9.1°C 43.4°F6.3°C 83% Calm Calm 3.0 mph4.8 kmh 30.09 in1019.0 mb 0.00 in0.0 mm 0.00 in0.0 mm 0.00 in0.0 mm
07:35 AM 47.8°F8.8°C 43.2°F6.2°C 84% Calm Calm 3.0 mph4.8 kmh 30.09 in1019.0 mb 0.00 in0.0 mm 0.00 in0.0 mm 0.00 in0.0 mm
07:30 AM 47.5°F8.6°C 42.6°F5.9°C 83% Calm Calm 3.0 mph4.8 kmh 30.08 in1018.6 mb 0.00 in0.0 mm 0.00 in0.0 mm 0.00 in0.0 mm
07:25 AM 47.4°F8.6°C 42.8°F6.0°C 84% 1.0 mph E1.6 kmh E 2.0 mph3.2 kmh 30.09 in1019.0 mb 0.00 in0.0 mm 0.00 in0.0 mm 0.00 in0.0 mm
07:20 AM 47.2°F8.4°C 42.6°F5.9°C 84% 1.0 mph E1.6 kmh E 2.0 mph3.2 kmh 30.09 in1019.0 mb 0.00 in0.0 mm 0.00 in0.0 mm 0.00 in0.0 mm
07:15 AM 46.9°F8.3°C 42.6°F5.9°C 85% Calm Calm 1.0 mph1.6 kmh 30.09 in1019.0 mb 0.00 in0.0 mm 0.00 in0.0 mm 0.00 in0.0 mm
07:10 AM 46.6°F8.1°C 42.0°F5.6°C 84% Calm Calm -- 30.09 in1019.0 mb 0.00 in0.0 mm 0.00 in0.0 mm 0.00 in0.0 mm
07:05 AM 46.5°F8.1°C 42.2°F5.7°C 85% Calm Calm 1.0 mph1.6 kmh 30.09 in1019.0 mb 0.00 in0.0 mm 0.00 in0.0 mm 0.00 in0.0 mm
07:00 AM 46.2°F7.9°C 42.2°F5.7°C 86% Calm Calm 1.0 mph1.6 kmh 30.09 in1019.0 mb 0.00 in0.0 mm 0.00 in0.0 mm 0.00 in0.0 mm
06:55 AM 45.9°F7.7°C 42.2°F5.7°C 87% Calm Calm 3.0 mph4.8 kmh 30.09 in1019.0 mb 0.00 in0.0 mm 0.00 in0.0 mm 0.00 in0.0 mm
06:50 AM 45.6°F7.6°C 42.0°F5.6°C 87% Calm Calm 3.0 mph4.8 kmh 30.09 in1019.0 mb 0.00 in0.0 mm 0.00 in0.0 mm 0.00 in0.0 mm
06:45 AM 45.2°F7.3°C 42.2°F5.7°C 89% Calm Calm 4.0 mph6.4 kmh 30.09 in1019.0 mb 0.00 in0.0 mm 0.00 in0.0 mm 0.00 in0.0 mm
06:40 AM 45.0°F7.2°C 42.5°F5.8°C 91% 1.0 mph E1.6 kmh E 4.0 mph6.4 kmh 30.09 in1019.0 mb 0.00 in0.0 mm 0.00 in0.0 mm 0.00 in0.0 mm
06:35 AM 44.7°F7.1°C 42.5°F5.8°C 92% Calm Calm 3.0 mph4.8 kmh 30.09 in1019.0 mb 0.00 in0.0 mm 0.00 in0.0 mm 0.00 in0.0 mm
06:30 AM 44.3°F6.8°C 42.4°F5.8°C 93% 1.0 mph E1.6 kmh E 3.0 mph4.8 kmh 30.08 in1018.6 mb 0.00 in0.0 mm 0.00 in0.0 mm 0.00 in0.0 mm
06:25 AM 44.0°F6.7°C 42.1°F5.6°C 93% Calm Calm 3.0 mph4.8 kmh 30.09 in1019.0 mb 0.00 in0.0 mm 0.00 in0.0 mm 0.00 in0.0 mm
06:20 AM 43.5°F6.4°C 41.6°F5.3°C 93% Calm Calm 3.0 mph4.8 kmh 30.08 in1018.6 mb 0.00 in0.0 mm 0.00 in0.0 mm 0.00 in0.0 mm
06:15 AM 43.1°F6.2°C 41.2°F5.1°C 93% Calm Calm 1.0 mph1.6 kmh 30.08 in1018.6 mb 0.00 in0.0 mm 0.00 in0.0 mm 0.00 in0.0 mm
06:10 AM 42.6°F5.9°C 41.0°F5.0°C 94% Calm Calm 2.0 mph3.2 kmh 30.08 in1018.6 mb 0.00 in0.0 mm 0.00 in0.0 mm 0.00 in0.0 mm
06:05 AM 42.2°F5.7°C 40.3°F4.6°C 93% Calm Calm 2.0 mph3.2 kmh 30.08 in1018.6 mb 0.00 in0.0 mm 0.00 in0.0 mm 0.00 in0.0 mm
06:00 AM 41.8°F5.4°C 39.9°F4.4°C 93% Calm Calm 2.0 mph3.2 kmh 30.08 in1018.6 mb 0.00 in0.0 mm 0.00 in0.0 mm 0.00 in0.0 mm
05:55 AM 41.5°F5.3°C 39.6°F4.2°C 93% Calm Calm 2.0 mph3.2 kmh 30.08 in1018.6 mb 0.00 in0.0 mm 0.00 in0.0 mm 0.00 in0.0 mm
05:50 AM 41.1°F5.1°C 39.2°F4.0°C 93% Calm Calm 2.0 mph3.2 kmh 30.08 in1018.6 mb 0.00 in0.0 mm 0.00 in0.0 mm 0.00 in0.0 mm
05:45 AM 40.9°F4.9°C 39.0°F3.9°C 93% Calm Calm 2.0 mph3.2 kmh 30.08 in1018.6 mb 0.00 in0.0 mm 0.00 in0.0 mm 0.00 in0.0 mm
05:40 AM 40.7°F4.8°C 38.8°F3.8°C 93% Calm Calm 2.0 mph3.2 kmh 30.08 in1018.6 mb 0.00 in0.0 mm 0.00 in0.0 mm 0.00 in0.0 mm
05:35 AM 40.5°F4.7°C 38.6°F3.7°C 93% Calm Calm 2.0 mph3.2 kmh 30.08 in1018.6 mb 0.00 in0.0 mm 0.00 in0.0 mm 0.00 in0.0 mm
05:30 AM 40.4°F4.7°C 38.5°F3.6°C 93% Calm Calm 2.0 mph3.2 kmh 30.08 in1018.6 mb 0.00 in0.0 mm 0.00 in0.0 mm 0.00 in0.0 mm
05:25 AM 40.2°F4.6°C 38.3°F3.5°C 93% Calm Calm 2.0 mph3.2 kmh 30.08 in1018.6 mb 0.00 in0.0 mm 0.00 in0.0 mm 0.00 in0.0 mm
05:20 AM 40.1°F4.5°C 38.0°F3.3°C 92% Calm Calm 2.0 mph3.2 kmh 30.08 in1018.6 mb 0.00 in0.0 mm 0.00 in0.0 mm 0.00 in0.0 mm
05:15 AM 40.0°F4.4°C 38.1°F3.4°C 93% Calm Calm 2.0 mph3.2 kmh 30.08 in1018.6 mb 0.00 in0.0 mm 0.00 in0.0 mm 0.00 in0.0 mm
05:10 AM 39.9°F4.4°C 37.8°F3.2°C 92% Calm Calm 2.0 mph3.2 kmh 30.08 in1018.6 mb 0.00 in0.0 mm 0.00 in0.0 mm 0.00 in0.0 mm
05:05 AM 39.9°F4.4°C 37.8°F3.2°C 92% Calm Calm 1.0 mph1.6 kmh 30.08 in1018.6 mb 0.00 in0.0 mm 0.00 in0.0 mm 0.00 in0.0 mm
05:00 AM 39.9°F4.4°C 37.8°F3.2°C 92% Calm Calm 2.0 mph3.2 kmh 30.08 in1018.6 mb 0.00 in0.0 mm 0.00 in0.0 mm 0.00 in0.0 mm
04:55 AM 39.8°F4.3°C 37.9°F3.3°C 93% Calm Calm 2.0 mph3.2 kmh 30.08 in1018.6 mb 0.00 in0.0 mm 0.00 in0.0 mm 0.00 in0.0 mm
04:50 AM 39.7°F4.3°C 37.6°F3.1°C 92% Calm Calm -- 30.08 in1018.6 mb 0.00 in0.0 mm 0.00 in0.0 mm 0.00 in0.0 mm
04:45 AM 39.6°F4.2°C 37.5°F3.1°C 92% Calm Calm -- 30.08 in1018.6 mb 0.00 in0.0 mm 0.00 in0.0 mm 0.00 in0.0 mm
04:40 AM 39.6°F4.2°C 37.5°F3.1°C 92% Calm Calm -- 30.08 in1018.6 mb 0.00 in0.0 mm 0.00 in0.0 mm 0.00 in0.0 mm
04:35 AM 39.6°F4.2°C 37.5°F3.1°C 92% Calm Calm 1.0 mph1.6 kmh 30.08 in1018.6 mb 0.00 in0.0 mm 0.00 in0.0 mm 0.00 in0.0 mm
04:30 AM 39.6°F4.2°C 37.5°F3.1°C 92% Calm Calm 1.0 mph1.6 kmh 30.07 in1018.3 mb 0.00 in0.0 mm 0.00 in0.0 mm 0.00 in0.0 mm
04:25 AM 39.6°F4.2°C 37.2°F2.9°C 91% Calm Calm 1.0 mph1.6 kmh 30.07 in1018.3 mb 0.00 in0.0 mm 0.00 in0.0 mm 0.00 in0.0 mm
04:20 AM 39.6°F4.2°C 37.2°F2.9°C 91% Calm Calm 1.0 mph1.6 kmh 30.07 in1018.3 mb 0.00 in0.0 mm 0.00 in0.0 mm 0.00 in0.0 mm
04:15 AM 39.7°F4.3°C 37.3°F2.9°C 91% Calm Calm -- 30.07 in1018.3 mb 0.00 in0.0 mm 0.00 in0.0 mm 0.00 in0.0 mm
04:10 AM 39.7°F4.3°C 37.3°F2.9°C 91% Calm Calm -- 30.07 in1018.3 mb 0.00 in0.0 mm 0.00 in0.0 mm 0.00 in0.0 mm
04:05 AM 39.9°F4.4°C 37.5°F3.1°C 91% Calm Calm -- 30.07 in1018.3 mb 0.00 in0.0 mm 0.00 in0.0 mm 0.00 in0.0 mm
04:00 AM 40.0°F4.4°C 37.6°F3.1°C 91% Calm Calm -- 30.07 in1018.3 mb 0.00 in0.0 mm 0.00 in0.0 mm 0.00 in0.0 mm
03:55 AM 40.0°F4.4°C 37.6°F3.1°C 91% Calm Calm -- 30.07 in1018.3 mb 0.00 in0.0 mm 0.00 in0.0 mm 0.00 in0.0 mm
03:50 AM 40.1°F4.5°C 37.7°F3.2°C 91% Calm Calm -- 30.07 in1018.3 mb 0.00 in0.0 mm 0.00 in0.0 mm 0.00 in0.0 mm
03:45 AM 40.2°F4.6°C 37.5°F3.1°C 90% Calm Calm -- 30.07 in1018.3 mb 0.00 in0.0 mm 0.00 in0.0 mm 0.00 in0.0 mm
03:40 AM 40.4°F4.7°C 37.7°F3.2°C 90% Calm Calm -- 30.07 in1018.3 mb 0.00 in0.0 mm 0.00 in0.0 mm 0.00 in0.0 mm
03:35 AM 40.5°F4.7°C 38.1°F3.4°C 91% Calm Calm -- 30.07 in1018.3 mb 0.00 in0.0 mm 0.00 in0.0 mm 0.00 in0.0 mm
03:30 AM 40.7°F4.8°C 38.3°F3.5°C 91% Calm Calm -- 30.07 in1018.3 mb 0.00 in0.0 mm 0.00 in0.0 mm 0.00 in0.0 mm
03:25 AM 40.8°F4.9°C 38.4°F3.6°C 91% Calm Calm -- 30.07 in1018.3 mb 0.00 in0.0 mm 0.00 in0.0 mm 0.00 in0.0 mm
03:20 AM 40.9°F4.9°C 38.2°F3.4°C 90% Calm Calm 1.0 mph1.6 kmh 30.07 in1018.3 mb 0.00 in0.0 mm 0.00 in0.0 mm 0.00 in0.0 mm
03:15 AM 41.1°F5.1°C 38.4°F3.6°C 90% Calm Calm 2.0 mph3.2 kmh 30.07 in1018.3 mb 0.00 in0.0 mm 0.00 in0.0 mm 0.00 in0.0 mm
03:10 AM 41.3°F5.2°C 38.3°F3.5°C 89% Calm Calm 2.0 mph3.2 kmh 30.07 in1018.3 mb 0.00 in0.0 mm 0.00 in0.0 mm 0.00 in0.0 mm
03:05 AM 41.5°F5.3°C 38.5°F3.6°C 89% Calm Calm 2.0 mph3.2 kmh 30.07 in1018.3 mb 0.00 in0.0 mm 0.00 in0.0 mm 0.00 in0.0 mm
03:00 AM 41.7°F5.4°C 38.7°F3.7°C 89% Calm Calm 2.0 mph3.2 kmh 30.06 in1017.9 mb 0.00 in0.0 mm 0.00 in0.0 mm 0.00 in0.0 mm
02:55 AM 41.8°F5.4°C 38.8°F3.8°C 89% Calm Calm -- 30.06 in1017.9 mb 0.00 in0.0 mm 0.00 in0.0 mm 0.00 in0.0 mm
02:50 AM 42.0°F5.6°C 39.0°F3.9°C 89% Calm Calm -- 30.06 in1017.9 mb 0.00 in0.0 mm 0.00 in0.0 mm 0.00 in0.0 mm
02:45 AM 42.1°F5.6°C 39.4°F4.1°C 90% Calm Calm 1.0 mph1.6 kmh 30.06 in1017.9 mb 0.00 in0.0 mm 0.00 in0.0 mm 0.00 in0.0 mm
02:40 AM 42.3°F5.7°C 39.3°F4.1°C 89% Calm Calm 2.0 mph3.2 kmh 30.05 in1017.6 mb 0.00 in0.0 mm 0.00 in0.0 mm 0.00 in0.0 mm
02:35 AM 42.5°F5.8°C 39.5°F4.2°C 89% Calm Calm 2.0 mph3.2 kmh 30.05 in1017.6 mb 0.00 in0.0 mm 0.00 in0.0 mm 0.00 in0.0 mm
02:30 AM 42.7°F5.9°C 39.7°F4.3°C 89% Calm Calm 2.0 mph3.2 kmh 30.05 in1017.6 mb 0.00 in0.0 mm 0.00 in0.0 mm 0.00 in0.0 mm
02:25 AM 42.9°F6.1°C 39.9°F4.4°C 89% Calm Calm 2.0 mph3.2 kmh 30.05 in1017.6 mb 0.00 in0.0 mm 0.00 in0.0 mm 0.00 in0.0 mm
02:20 AM 43.2°F6.2°C 39.9°F4.4°C 88% Calm Calm 2.0 mph3.2 kmh 30.05 in1017.6 mb 0.00 in0.0 mm 0.00 in0.0 mm 0.00 in0.0 mm
02:15 AM 43.4°F6.3°C 40.1°F4.5°C 88% Calm Calm -- 30.04 in1017.3 mb 0.00 in0.0 mm 0.00 in0.0 mm 0.00 in0.0 mm
02:10 AM 43.6°F6.4°C 40.3°F4.6°C 88% Calm Calm 1.0 mph1.6 kmh 30.04 in1017.3 mb 0.00 in0.0 mm 0.00 in0.0 mm 0.00 in0.0 mm
02:05 AM 43.8°F6.6°C 40.5°F4.7°C 88% Calm Calm 2.0 mph3.2 kmh 30.04 in1017.3 mb 0.00 in0.0 mm 0.00 in0.0 mm 0.00 in0.0 mm
02:00 AM 44.0°F6.7°C 40.7°F4.8°C 88% Calm Calm 2.0 mph3.2 kmh 30.04 in1017.3 mb 0.00 in0.0 mm 0.00 in0.0 mm 0.00 in0.0 mm
01:55 AM 44.3°F6.8°C 40.7°F4.8°C 87% Calm Calm 1.0 mph1.6 kmh 30.04 in1017.3 mb 0.00 in0.0 mm 0.00 in0.0 mm 0.00 in0.0 mm
01:50 AM 44.5°F6.9°C 41.2°F5.1°C 88% Calm Calm 2.0 mph3.2 kmh 30.04 in1017.3 mb 0.00 in0.0 mm 0.00 in0.0 mm 0.00 in0.0 mm
01:45 AM 44.7°F7.1°C 41.4°F5.2°C 88% Calm Calm 2.0 mph3.2 kmh 30.04 in1017.3 mb 0.00 in0.0 mm 0.00 in0.0 mm 0.00 in0.0 mm
01:40 AM 45.0°F7.2°C 41.7°F5.4°C 88% 1.0 mph S1.6 kmh S 2.0 mph3.2 kmh 30.04 in1017.3 mb 0.00 in0.0 mm 0.00 in0.0 mm 0.00 in0.0 mm
01:35 AM 45.1°F7.3°C 41.5°F5.3°C 87% Calm Calm 2.0 mph3.2 kmh 30.04 in1017.3 mb 0.00 in0.0 mm 0.00 in0.0 mm 0.00 in0.0 mm
01:30 AM 45.4°F7.4°C 41.8°F5.4°C 87% Calm Calm 1.0 mph1.6 kmh 30.04 in1017.3 mb 0.00 in0.0 mm 0.00 in0.0 mm 0.00 in0.0 mm
01:25 AM 45.6°F7.6°C 42.0°F5.6°C 87% Calm Calm 2.0 mph3.2 kmh 30.04 in1017.3 mb 0.00 in0.0 mm 0.00 in0.0 mm 0.00 in0.0 mm
01:20 AM 45.9°F7.7°C 41.9°F5.5°C 86% Calm Calm 2.0 mph3.2 kmh 30.03 in1016.9 mb 0.00 in0.0 mm 0.00 in0.0 mm 0.00 in0.0 mm
01:15 AM 46.2°F7.9°C 42.2°F5.7°C 86% Calm Calm 1.0 mph1.6 kmh 30.03 in1016.9 mb 0.00 in0.0 mm 0.00 in0.0 mm 0.00 in0.0 mm
01:10 AM 46.4°F8.0°C 42.7°F5.9°C 87% Calm Calm -- 30.03 in1016.9 mb 0.00 in0.0 mm 0.00 in0.0 mm 0.00 in0.0 mm
01:05 AM 46.5°F8.1°C 42.8°F6.0°C 87% Calm Calm 2.0 mph3.2 kmh 30.03 in1016.9 mb 0.00 in0.0 mm 0.00 in0.0 mm 0.00 in0.0 mm
01:00 AM 46.7°F8.2°C 43.0°F6.1°C 87% Calm Calm 2.0 mph3.2 kmh 30.02 in1016.6 mb 0.00 in0.0 mm 0.00 in0.0 mm 0.00 in0.0 mm
12:55 AM 46.9°F8.3°C 43.2°F6.2°C 87% Calm Calm 2.0 mph3.2 kmh 30.02 in1016.6 mb 0.00 in0.0 mm 0.00 in0.0 mm 0.00 in0.0 mm
12:50 AM 47.1°F8.4°C 43.4°F6.3°C 87% Calm Calm 1.0 mph1.6 kmh 30.02 in1016.6 mb 0.00 in0.0 mm 0.00 in0.0 mm 0.00 in0.0 mm
12:45 AM 47.3°F8.5°C 43.6°F6.4°C 87% Calm Calm 2.0 mph3.2 kmh 30.02 in1016.6 mb 0.00 in0.0 mm 0.00 in0.0 mm 0.00 in0.0 mm
12:40 AM 47.4°F8.6°C 43.7°F6.5°C 87% 1.0 mph S1.6 kmh S 3.0 mph4.8 kmh 30.02 in1016.6 mb 0.00 in0.0 mm 0.00 in0.0 mm 0.00 in0.0 mm
12:35 AM 47.6°F8.7°C 43.6°F6.4°C 86% 1.0 mph S1.6 kmh S 3.0 mph4.8 kmh 30.02 in1016.6 mb 0.00 in0.0 mm 0.00 in0.0 mm 0.00 in0.0 mm
12:30 AM 47.8°F8.8°C 43.5°F6.4°C 85% 1.0 mph S1.6 kmh S 2.0 mph3.2 kmh 30.02 in1016.6 mb 0.00 in0.0 mm 0.00 in0.0 mm 0.00 in0.0 mm
12:25 AM 48.1°F8.9°C 43.8°F6.6°C 85% 1.0 mph S1.6 kmh S 2.0 mph3.2 kmh 30.02 in1016.6 mb 0.00 in0.0 mm 0.00 in0.0 mm 0.00 in0.0 mm
12:20 AM 48.5°F9.2°C 43.9°F6.6°C 84% 1.0 mph S1.6 kmh S 2.0 mph3.2 kmh 30.02 in1016.6 mb 0.00 in0.0 mm 0.00 in0.0 mm 0.00 in0.0 mm
12:15 AM 48.9°F9.4°C 44.0°F6.7°C 83% Calm Calm 2.0 mph3.2 kmh 30.01 in1016.3 mb 0.00 in0.0 mm 0.00 in0.0 mm 0.00 in0.0 mm
12:10 AM 49.3°F9.6°C 44.0°F6.7°C 82% Calm Calm -- 30.02 in1016.6 mb 0.00 in0.0 mm 0.00 in0.0 mm 0.00 in0.0 mm
12:05 AM 49.7°F9.8°C 44.4°F6.9°C 82% Calm Calm 1.0 mph1.6 kmh 30.01 in1016.3 mb 0.00 in0.0 mm 0.00 in0.0 mm 0.00 in0.0 mm
12:00 AM 50.1°F10.1°C 44.5°F6.9°C 81% Calm Calm 3.0 mph4.8 kmh 30.01 in1016.3 mb 0.00 in0.0 mm 0.00 in0.0 mm 0.00 in0.0 mm